Dennis, Texas
Current Conditions -  °F | °C
As of 2:35 AM on Sunday 23 Nov 2014 (Local Time) from KGDJ Reporting Station
Clear Clear  
Wind Chill: 13°   Ceiling: Unl
Heat Index: 13°   Visibility: 10mi
Dew Point: 12°   Wind: 3mph
Humidity: 92%   Direction: 190°S
Pressure: 29.66"   Gusts: NA
Location:  32.62°N, 97.93°W
Report Text: KGDJ 230835Z AUTO 19003KT 10SM CLR 13/12 A2966 RMK AO2 P0002 T01270115
Loading
Personal Weather Stations






























Interactive Weather Map New forecast layout! Learn more

10-Day Weather Forecast

Advertisements
Track Severe Weather on mobile